Airfield :
LOGIN :

Register | Disclaimer

   EN    FR    IT 

 










Legend :    VFR   Marginal VFR   IFR   Intensive IFR   Very Intensive IFR
Visi :
Ceiling :
>= 8 km
>= 3000ft
5 to 8 km
1000 to 3000 ft
1500m to 5 km
500 to 1000 ft
800 to 1500m
200 to 500 ft
< 800m
< 200 ft
Symbols :   Thunderstorms  Fog  Heavy snow  Heavy precipitations  Wind > 20 kt
SIGMETs :     Misc.  Thunderstorms  Icing  Turbulence  Mountain Waves  Volcanic Ashes






- Airport Elevation : 84 ft


LFBC - Cazaux

CURRENT METAR :
  • 161300Z AUTO 26009KT 230V300 9999 OVC033 21/15 Q1023 NOSIG

EXPIRED METARs :
  • 161230Z AUTO 29008KT 240V320 9999 OVC034 21/15 Q1023 NOSIG
  • 161200Z AUTO 28008KT 250V320 9999 FEW023 OVC032 21/15 Q1023 NOSIG
  • 161130Z AUTO 25004KT 210V300 9999 SCT026 OVC032 20/15 Q1023 NOSIG
  • 161100Z AUTO 27005KT 240V310 9999 OVC025 19/15 Q1023 TEMPO BKN008
  • 161030Z AUTO 31005KT 240V360 9999 FEW021 OVC027 20/15 Q1023 TEMPO BKN008

TAF TAF LFBC
Valid from the 16 at 09:00 until the 17 at 09:00 UTC


160800Z 1609/1709 28005KT 9999 BKN025
PROB40
TEMPO 1609/1612 BKN008



MET'MAP, your aeronautical weather chart ! - Copyright ORBIFLY December 2007 - Disclaimer

ORBIFLY MET'MAP TEAM :

Programming & Development : Alexandra Zaïnal
Concept & original design : Baudouin d'Aumeries
Assistance for programming : Marc-Olivier Méhu
Technical & hardware support : Manuel Goepfert

Contact : metmap@orbifly.com




SOURCES & CREDITS :

   NOAA